Time;durP1;ratioP1;P1;durP2;ratioP2;P2;SDS_P1;SDS_P2;PMS_P1;PMS_P2;Temp;Humidity;BMP_temperature;BMP_pressure;BME280_temperature;BME280_humidity;BME280_pressure;Samples;Min_cycle;Max_cycle;Signal;HPM_P1;HPM_P2
2022/10/25 00:02:16;;;;;;;1.15;0.70;;;;;;;;;;4996438;28;20038;-56
2022/10/25 00:04:42;;;;;;;;;;;;;;;;;;4996084;28;20474;-57
2022/10/25 00:07:07;;;;;;;1.35;0.70;;;;;;;;;;4998591;28;19924;-57
2022/10/25 00:09:33;;;;;;;1.75;0.80;;;;;;;;;;4994781;28;20034;-57
2022/10/25 00:11:58;;;;;;;1.63;0.63;;;;;;;;;;5011145;28;20436;-57
2022/10/25 00:14:24;;;;;;;1.50;0.70;;;;;;;;;;5013244;28;20112;-57
2022/10/25 00:16:49;;;;;;;1.77;0.60;;;;;;;;;;5003374;28;20039;-57
2022/10/25 00:19:15;;;;;;;1.08;0.60;;;;;;;;;;5006580;28;20084;-58
2022/10/25 00:21:40;;;;;;;1.65;0.80;;;;;;;;;;5009840;28;20041;-57
2022/10/25 00:24:06;;;;;;;1.52;0.80;;;;;;;;;;5013728;28;20036;-57
2022/10/25 00:26:31;;;;;;;1.73;0.73;;;;;;;;;;5012960;28;20393;-57
2022/10/25 00:28:57;;;;;;;1.75;0.70;;;;;;;;;;5011946;28;20044;-56
2022/10/25 00:31:23;;;;;;;2.20;1.00;;;;;;;;;;5013331;28;20036;-57
2022/10/25 00:33:49;;;;;;;2.80;0.70;;;;;;;;;;5013394;28;20041;-57
2022/10/25 00:36:25;;;;;;;1.75;0.75;;;;;;;;;;5012934;28;20044;-57
2022/10/25 00:38:50;;;;;;;1.52;0.80;;;;;;;;;;5001941;28;20125;-56
2022/10/25 00:41:19;;;;;;;1.55;0.70;;;;;;;;;;5003587;28;20168;-57
2022/10/25 00:43:47;;;;;;;2.33;0.80;;;;;;;;;;5005935;28;20037;-57
2022/10/25 00:46:22;;;;;;;2.25;0.85;;;;;;;;;;5008406;28;20054;-57
2022/10/25 00:49:10;;;;;;;2.30;0.70;;;;;;;;;;5028080;28;20493;-57
2022/10/25 00:51:39;;;;;;;1.50;0.80;;;;;;;;;;5020231;28;20060;-57
2022/10/25 00:54:07;;;;;;;1.45;0.77;;;;;;;;;;5013355;28;20026;-57
2022/10/25 00:56:36;;;;;;;1.67;0.70;;;;;;;;;;5003539;28;20088;-56
2022/10/25 00:59:06;;;;;;;2.75;0.82;;;;;;;;;;5002892;28;20070;-56
2022/10/25 01:01:31;;;;;;;1.33;0.65;;;;;;;;;;4998470;28;20398;-57
2022/10/25 01:03:59;;;;;;;2.15;0.80;;;;;;;;;;5002869;28;20022;-56
2022/10/25 01:06:39;;;;;;;1.38;0.70;;;;;;;;;;5000990;28;20116;-57
2022/10/25 01:09:06;;;;;;;1.58;0.65;;;;;;;;;;5013049;28;20030;-56
2022/10/25 01:11:32;;;;;;;1.58;0.77;;;;;;;;;;5012011;28;20124;-56
2022/10/25 01:13:57;;;;;;;1.73;0.77;;;;;;;;;;5009973;28;20169;-57
2022/10/25 01:16:33;;;;;;;2.08;0.90;;;;;;;;;;4995596;28;20581;-57
2022/10/25 01:19:24;;;;;;;2.17;0.85;;;;;;;;;;5013188;28;20045;-57
2022/10/25 01:21:54;;;;;;;1.38;0.70;;;;;;;;;;5010026;28;20045;-57
2022/10/25 01:24:38;;;;;;;0.98;0.60;;;;;;;;;;5007251;28;20040;-57
2022/10/25 01:27:15;;;;;;;1.30;0.63;;;;;;;;;;5013080;28;20120;-57
2022/10/25 01:30:12;;;;;;;1.30;0.70;;;;;;;;;;5016613;28;20049;-57
2022/10/25 01:33:08;;;;;;;1.77;0.70;;;;;;;;;;5015423;28;20041;-56
2022/10/25 01:36:15;;;;;;;2.45;1.00;;;;;;;;;;5015218;28;20042;-57
2022/10/25 01:39:11;;;;;;;1.55;0.77;;;;;;;;;;4994413;28;20034;-56
2022/10/25 01:42:06;;;;;;;3.00;0.60;;;;;;;;;;4965057;28;20506;-57
2022/10/25 01:45:14;;;;;;;1.52;0.70;;;;;;;;;;5005725;28;20042;-57
2022/10/25 01:47:47;;;;;;;1.10;0.60;;;;;;;;;;5012517;28;20030;-57
2022/10/25 01:50:25;;;;;;;1.65;0.80;;;;;;;;;;5016383;28;20038;-56
2022/10/25 01:52:51;;;;;;;2.05;0.90;;;;;;;;;;4998518;28;20042;-57
2022/10/25 01:55:17;;;;;;;1.27;0.80;;;;;;;;;;5010353;28;20041;-57
2022/10/25 01:58:20;;;;;;;3.00;0.82;;;;;;;;;;5016144;28;20037;-57
2022/10/25 02:00:52;;;;;;;1.30;0.60;;;;;;;;;;5001589;28;20456;-57
2022/10/25 02:03:17;;;;;;;1.83;0.80;;;;;;;;;;5000816;28;20366;-57
2022/10/25 02:06:13;;;;;;;2.47;0.90;;;;;;;;;;5016259;28;20113;-57
2022/10/25 02:08:41;;;;;;;1.05;0.68;;;;;;;;;;5015445;28;20504;-56
2022/10/25 02:11:22;;;;;;;1.52;0.70;;;;;;;;;;5015670;28;20505;-59
2022/10/25 02:13:53;;;;;;;3.67;1.02;;;;;;;;;;5014046;28;20521;-57
2022/10/25 02:16:25;;;;;;;1.42;0.65;;;;;;;;;;5001827;28;20030;-57
2022/10/25 02:18:54;;;;;;;2.00;0.70;;;;;;;;;;5009801;28;20046;-56
2022/10/25 02:21:21;;;;;;;1.98;0.80;;;;;;;;;;5015893;28;20026;-57
2022/10/25 02:23:47;;;;;;;0.77;0.60;;;;;;;;;;5014779;28;20046;-57
2022/10/25 02:26:13;;;;;;;1.40;0.70;;;;;;;;;;5014500;28;20052;-56
2022/10/25 02:28:40;;;;;;;0.77;0.50;;;;;;;;;;5007354;28;20038;-57
2022/10/25 02:31:08;;;;;;;0.90;0.50;;;;;;;;;;5013063;28;20033;-57
2022/10/25 02:33:34;;;;;;;1.85;0.70;;;;;;;;;;5014224;28;20046;-57
2022/10/25 02:36:08;;;;;;;1.15;0.63;;;;;;;;;;5014981;28;20088;-57
2022/10/25 02:38:34;;;;;;;1.42;0.60;;;;;;;;;;5006730;28;20037;-56
2022/10/25 02:41:01;;;;;;;1.23;0.85;;;;;;;;;;4996853;28;20121;-57
2022/10/25 02:43:26;;;;;;;1.60;0.60;;;;;;;;;;5006287;28;20065;-56
2022/10/25 02:45:52;;;;;;;1.38;0.60;;;;;;;;;;5006840;28;20490;-57
2022/10/25 02:48:17;;;;;;;1.38;0.70;;;;;;;;;;5004067;28;20025;-57
2022/10/25 02:50:43;;;;;;;1.90;0.77;;;;;;;;;;4998726;28;20074;-58
2022/10/25 02:53:08;;;;;;;1.33;0.60;;;;;;;;;;5010500;28;20046;-57
2022/10/25 02:55:33;;;;;;;1.95;0.70;;;;;;;;;;5014961;28;20117;-56
2022/10/25 02:57:59;;;;;;;1.38;0.75;;;;;;;;;;5014813;28;20077;-56
2022/10/25 03:00:24;;;;;;;3.53;0.50;;;;;;;;;;5014747;28;20034;-57
2022/10/25 03:02:50;;;;;;;2.38;0.65;;;;;;;;;;5015159;28;20069;-57
2022/10/25 03:05:15;;;;;;;1.05;0.60;;;;;;;;;;5015033;28;20074;-55
2022/10/25 03:07:40;;;;;;;1.23;0.70;;;;;;;;;;5014720;28;20057;-57
2022/10/25 03:10:06;;;;;;;2.25;0.70;;;;;;;;;;5014612;28;20030;-55
2022/10/25 03:12:32;;;;;;;1.50;0.70;;;;;;;;;;5014819;28;20117;-56
2022/10/25 03:14:57;;;;;;;1.13;0.60;;;;;;;;;;5009632;28;20401;-57
2022/10/25 03:17:22;;;;;;;0.90;0.60;;;;;;;;;;5005337;28;20187;-57
2022/10/25 03:19:48;;;;;;;1.08;0.70;;;;;;;;;;5012400;28;20042;-56
2022/10/25 03:22:13;;;;;;;3.50;0.57;;;;;;;;;;5014024;28;20421;-56
2022/10/25 03:24:38;;;;;;;0.98;0.63;;;;;;;;;;5014721;28;20072;-57
2022/10/25 03:27:04;;;;;;;1.15;0.60;;;;;;;;;;5014598;28;20084;-56
2022/10/25 03:29:29;;;;;;;0.73;0.52;;;;;;;;;;5014566;28;20552;-56
2022/10/25 03:31:54;;;;;;;0.90;0.60;;;;;;;;;;5014560;28;20036;-55
2022/10/25 03:34:20;;;;;;;0.98;0.50;;;;;;;;;;5013962;28;20048;-58
2022/10/25 03:36:45;;;;;;;1.52;0.60;;;;;;;;;;5014404;28;20486;-57
2022/10/25 03:39:10;;;;;;;0.90;0.50;;;;;;;;;;5014445;28;20036;-57
2022/10/25 03:41:36;;;;;;;1.20;0.55;;;;;;;;;;5014366;28;20103;-57
2022/10/25 03:44:01;;;;;;;0.98;0.50;;;;;;;;;;5014263;28;20033;-57
2022/10/25 03:46:27;;;;;;;1.13;0.60;;;;;;;;;;5014217;28;20479;-57
2022/10/25 03:48:52;;;;;;;1.70;0.70;;;;;;;;;;5014254;28;20520;-57
2022/10/25 03:51:17;;;;;;;0.90;0.50;;;;;;;;;;5013904;28;20038;-57
2022/10/25 03:53:43;;;;;;;1.05;0.60;;;;;;;;;;5013848;28;20108;-57
2022/10/25 03:56:08;;;;;;;1.58;0.70;;;;;;;;;;5014088;28;20128;-57
2022/10/25 03:58:33;;;;;;;1.38;0.60;;;;;;;;;;5014089;28;20037;-57
2022/10/25 04:00:59;;;;;;;1.10;0.63;;;;;;;;;;5014119;28;20106;-56
2022/10/25 04:03:24;;;;;;;2.08;0.68;;;;;;;;;;5013879;28;20532;-58
2022/10/25 04:05:49;;;;;;;1.67;0.80;;;;;;;;;;5013841;28;20065;-57
2022/10/25 04:08:15;;;;;;;0.90;0.60;;;;;;;;;;5012973;28;20050;-57
2022/10/25 04:10:40;;;;;;;1.15;0.63;;;;;;;;;;4998610;28;20405;-57
2022/10/25 04:13:06;;;;;;;1.10;0.60;;;;;;;;;;5013944;28;20163;-57
2022/10/25 04:15:31;;;;;;;1.40;0.68;;;;;;;;;;5008159;28;20030;-57
2022/10/25 04:17:56;;;;;;;1.55;0.68;;;;;;;;;;5003401;28;20481;-57
2022/10/25 04:20:22;;;;;;;1.25;0.55;;;;;;;;;;4999303;28;20038;-56
2022/10/25 04:22:56;;;;;;;1.17;0.60;;;;;;;;;;5012192;28;20390;-56
2022/10/25 04:25:26;;;;;;;1.17;0.52;;;;;;;;;;5013589;28;20125;-57
2022/10/25 04:27:51;;;;;;;0.98;0.50;;;;;;;;;;5013628;28;20041;-57
2022/10/25 04:30:17;;;;;;;1.27;0.65;;;;;;;;;;5003055;28;20042;-57
2022/10/25 04:32:42;;;;;;;0.93;0.50;;;;;;;;;;5006912;28;20207;-57
2022/10/25 04:35:08;;;;;;;1.48;0.50;;;;;;;;;;5002644;28;20036;-57
2022/10/25 04:37:34;;;;;;;1.75;0.88;;;;;;;;;;4997844;28;20529;-56
2022/10/25 04:39:59;;;;;;;0.98;0.52;;;;;;;;;;4994899;28;20116;-57
2022/10/25 04:42:24;;;;;;;1.15;0.50;;;;;;;;;;5006271;28;20026;-57
2022/10/25 04:44:50;;;;;;;1.10;0.55;;;;;;;;;;4999892;28;20125;-57
2022/10/25 04:47:15;;;;;;;0.55;0.40;;;;;;;;;;5000681;28;20470;-56
2022/10/25 04:49:40;;;;;;;1.02;0.52;;;;;;;;;;4997223;28;20089;-57
2022/10/25 04:52:06;;;;;;;1.00;0.55;;;;;;;;;;4997148;28;20065;-56
2022/10/25 04:54:31;;;;;;;1.27;0.60;;;;;;;;;;5013091;28;20549;-57
2022/10/25 04:56:56;;;;;;;1.67;0.60;;;;;;;;;;5013426;28;20034;-56
2022/10/25 04:59:22;;;;;;;0.80;0.50;;;;;;;;;;5013090;28;20045;-57
2022/10/25 05:01:47;;;;;;;0.73;0.50;;;;;;;;;;5013057;28;20449;-57
2022/10/25 05:04:13;;;;;;;1.40;0.60;;;;;;;;;;5016436;28;20022;-57
2022/10/25 05:06:38;;;;;;;1.23;0.80;;;;;;;;;;5016355;28;20536;-57
2022/10/25 05:09:03;;;;;;;1.30;0.70;;;;;;;;;;5016738;28;20073;-57
2022/10/25 05:11:29;;;;;;;0.85;0.50;;;;;;;;;;5010052;28;20062;-57
2022/10/25 05:13:54;;;;;;;0.55;0.40;;;;;;;;;;5004621;28;20482;-57
2022/10/25 05:16:23;;;;;;;0.98;0.50;;;;;;;;;;5009389;28;20042;-57
2022/10/25 05:18:50;;;;;;;1.75;0.60;;;;;;;;;;4999844;28;20031;-56
2022/10/25 05:21:16;;;;;;;1.38;0.60;;;;;;;;;;4998009;28;20042;-56
2022/10/25 05:23:41;;;;;;;1.38;0.60;;;;;;;;;;4999134;28;20073;-57
2022/10/25 05:26:15;;;;;;;0.98;0.50;;;;;;;;;;4999989;28;20072;-57
2022/10/25 05:28:42;;;;;;;1.00;0.60;;;;;;;;;;5007815;28;20041;-57
2022/10/25 05:31:12;;;;;;;0.65;0.50;;;;;;;;;;5016765;28;20096;-56
2022/10/25 05:33:37;;;;;;;0.68;0.40;;;;;;;;;;5006417;28;20041;-57
2022/10/25 05:36:03;;;;;;;1.63;0.70;;;;;;;;;;5016766;28;20026;-56
2022/10/25 05:38:29;;;;;;;1.15;0.60;;;;;;;;;;5016697;28;20492;-57
2022/10/25 05:40:55;;;;;;;1.33;0.57;;;;;;;;;;5016378;28;20056;-56
2022/10/25 05:43:21;;;;;;;1.65;0.73;;;;;;;;;;5015854;28;20022;-57
2022/10/25 05:45:46;;;;;;;1.35;0.50;;;;;;;;;;5007126;28;20474;-56
2022/10/25 05:48:12;;;;;;;0.55;0.40;;;;;;;;;;5015009;28;20030;-56
2022/10/25 05:50:37;;;;;;;1.33;0.60;;;;;;;;;;5004478;28;20026;-57
2022/10/25 05:53:03;;;;;;;1.17;0.57;;;;;;;;;;5006851;28;20462;-57
2022/10/25 05:55:28;;;;;;;1.45;0.70;;;;;;;;;;5006815;28;20041;-57
2022/10/25 05:57:54;;;;;;;0.82;0.60;;;;;;;;;;5006625;28;20042;-57
2022/10/25 06:00:19;;;;;;;1.35;0.60;;;;;;;;;;5010816;28;20105;-56
2022/10/25 06:02:44;;;;;;;0.85;0.50;;;;;;;;;;5012281;28;20049;-57
2022/10/25 06:05:10;;;;;;;0.93;0.50;;;;;;;;;;5016096;28;20061;-56
2022/10/25 06:07:35;;;;;;;1.30;0.70;;;;;;;;;;5016212;28;20429;-57
2022/10/25 06:10:00;;;;;;;1.95;0.70;;;;;;;;;;5016073;28;20042;-56
2022/10/25 06:12:26;;;;;;;1.13;0.50;;;;;;;;;;5015968;28;20109;-58
2022/10/25 06:14:51;;;;;;;1.42;0.70;;;;;;;;;;5010134;28;20389;-57
2022/10/25 06:17:17;;;;;;;1.10;0.60;;;;;;;;;;5004396;28;20478;-57
2022/10/25 06:19:42;;;;;;;1.58;0.60;;;;;;;;;;5003459;28;20026;-57
2022/10/25 06:22:07;;;;;;;0.70;0.50;;;;;;;;;;5002369;28;20121;-57
2022/10/25 06:24:33;;;;;;;0.82;0.50;;;;;;;;;;5015582;28;20080;-57
2022/10/25 06:26:58;;;;;;;0.80;0.55;;;;;;;;;;5008232;28;20037;-57
2022/10/25 06:29:23;;;;;;;1.50;0.50;;;;;;;;;;5001822;28;20509;-57
2022/10/25 06:31:49;;;;;;;0.90;0.55;;;;;;;;;;4996765;28;20140;-57
2022/10/25 06:34:14;;;;;;;0.50;0.50;;;;;;;;;;4997527;28;20034;-57
2022/10/25 06:36:39;;;;;;;1.55;0.60;;;;;;;;;;5015346;28;20034;-56
2022/10/25 06:39:05;;;;;;;1.25;0.57;;;;;;;;;;5005265;28;20048;-57
2022/10/25 06:41:30;;;;;;;0.73;0.60;;;;;;;;;;4999516;28;20026;-57
2022/10/25 06:43:57;;;;;;;0.85;0.52;;;;;;;;;;5007799;28;20072;-58
2022/10/25 06:46:28;;;;;;;0.43;0.40;;;;;;;;;;5003675;28;20042;-58
2022/10/25 06:48:56;;;;;;;1.00;0.60;;;;;;;;;;5007652;28;20033;-57
2022/10/25 06:51:23;;;;;;;1.38;0.60;;;;;;;;;;5004701;28;20042;-57
2022/10/25 06:53:59;;;;;;;1.27;0.52;;;;;;;;;;5008526;28;20034;-57
2022/10/25 06:56:25;;;;;;;1.23;0.60;;;;;;;;;;5009810;28;20500;-57
2022/10/25 06:58:51;;;;;;;1.95;0.70;;;;;;;;;;5014726;28;20041;-57
2022/10/25 07:01:18;;;;;;;1.02;0.60;;;;;;;;;;5007822;28;20100;-57
2022/10/25 07:03:43;;;;;;;2.58;0.55;;;;;;;;;;5001037;28;20042;-57
2022/10/25 07:06:21;;;;;;;2.85;0.60;;;;;;;;;;5012704;28;20545;-57
2022/10/25 07:08:47;;;;;;;2.75;0.80;;;;;;;;;;5021501;28;20050;-57
2022/10/25 07:11:23;;;;;;;1.05;0.60;;;;;;;;;;5026842;28;20394;-57
2022/10/25 07:13:49;;;;;;;1.40;0.68;;;;;;;;;;5010153;28;20033;-57
2022/10/25 07:16:16;;;;;;;0.98;0.50;;;;;;;;;;5001734;28;20046;-62
2022/10/25 07:18:42;;;;;;;3.78;0.63;;;;;;;;;;5012083;28;20026;-57
2022/10/25 07:21:12;;;;;;;2.88;0.52;;;;;;;;;;5014931;28;20452;-57
2022/10/25 07:23:41;;;;;;;3.50;0.60;;;;;;;;;;4997998;28;20470;-57
2022/10/25 07:26:12;;;;;;;0.88;0.50;;;;;;;;;;5002910;28;20034;-55
2022/10/25 07:28:38;;;;;;;1.10;0.63;;;;;;;;;;5011580;28;20120;-54
2022/10/25 07:31:03;;;;;;;1.00;0.50;;;;;;;;;;5014346;28;20128;-55
2022/10/25 07:33:30;;;;;;;1.13;0.60;;;;;;;;;;5014556;28;20033;-53
2022/10/25 07:35:55;;;;;;;0.55;0.50;;;;;;;;;;5013870;28;20034;-56
2022/10/25 07:38:20;;;;;;;2.92;0.70;;;;;;;;;;5011246;28;20026;-53
2022/10/25 07:40:46;;;;;;;0.55;0.40;;;;;;;;;;5021887;28;20481;-56
2022/10/25 07:43:11;;;;;;;2.85;0.60;;;;;;;;;;5013238;28;20030;-56
2022/10/25 07:45:37;;;;;;;1.10;0.68;;;;;;;;;;5015467;28;20053;-56
2022/10/25 07:48:03;;;;;;;1.08;0.50;;;;;;;;;;5013071;28;20033;-56
2022/10/25 07:50:29;;;;;;;2.75;0.60;;;;;;;;;;5003227;28;20053;-54
2022/10/25 07:52:56;;;;;;;9.57;2.05;;;;;;;;;;5010124;28;20038;-55
2022/10/25 07:55:22;;;;;;;3.50;1.00;;;;;;;;;;5013744;28;20030;-55
2022/10/25 07:57:48;;;;;;;11.05;0.90;;;;;;;;;;5013507;28;20038;-57
2022/10/25 08:00:13;;;;;;;1.83;0.63;;;;;;;;;;5014111;28;20041;-55
2022/10/25 08:02:39;;;;;;;1.88;0.80;;;;;;;;;;5013005;28;20080;-51
2022/10/25 08:05:05;;;;;;;2.83;0.70;;;;;;;;;;4997075;28;20508;-51
2022/10/25 08:07:30;;;;;;;4.55;0.80;;;;;;;;;;4995356;28;20133;-50
2022/10/25 08:09:55;;;;;;;1.13;0.68;;;;;;;;;;5002453;28;20066;-49
2022/10/25 08:12:21;;;;;;;1.35;0.70;;;;;;;;;;5012870;28;20105;-53
2022/10/25 08:14:46;;;;;;;2.10;0.70;;;;;;;;;;5010305;28;20088;-50
2022/10/25 08:17:12;;;;;;;4.75;0.60;;;;;;;;;;5006579;28;20030;-51
2022/10/25 08:19:37;;;;;;;11.20;0.95;;;;;;;;;;5011195;28;20038;-53
2022/10/25 08:22:03;;;;;;;5.65;0.77;;;;;;;;;;5013292;28;20088;-51
2022/10/25 08:24:28;;;;;;;7.55;0.80;;;;;;;;;;5013950;28;20374;-52
2022/10/25 08:26:53;;;;;;;3.97;0.82;;;;;;;;;;5013805;28;20095;-52
2022/10/25 08:29:19;;;;;;;6.93;0.95;;;;;;;;;;5013574;28;20030;-49
2022/10/25 08:31:44;;;;;;;3.55;0.70;;;;;;;;;;5013571;28;20400;-50
2022/10/25 08:34:10;;;;;;;0.82;0.55;;;;;;;;;;5012843;28;20037;-51
2022/10/25 08:36:35;;;;;;;2.47;0.63;;;;;;;;;;5005841;28;20034;-49
2022/10/25 08:39:00;;;;;;;1.92;0.80;;;;;;;;;;5013073;28;20029;-53
2022/10/25 08:41:35;;;;;;;2.10;0.80;;;;;;;;;;5007926;28;20445;-50
2022/10/25 08:44:25;;;;;;;2.20;0.80;;;;;;;;;;5007958;28;20041;-52
2022/10/25 08:47:16;;;;;;;4.72;1.00;;;;;;;;;;5004697;28;20029;-48
2022/10/25 08:50:00;;;;;;;4.32;0.93;;;;;;;;;;5003166;28;20034;-51
2022/10/25 08:52:45;;;;;;;2.72;0.90;;;;;;;;;;4999599;28;20066;-53
2022/10/25 08:55:21;;;;;;;2.58;0.88;;;;;;;;;;5031779;28;20037;-49
2022/10/25 08:57:49;;;;;;;2.58;0.70;;;;;;;;;;5006609;28;20446;-50
2022/10/25 09:00:24;;;;;;;3.13;0.88;;;;;;;;;;5012047;28;20131;-50
2022/10/25 09:03:00;;;;;;;3.13;0.82;;;;;;;;;;5011757;28;20042;-52
2022/10/25 09:05:34;;;;;;;1.92;0.63;;;;;;;;;;5009017;28;20033;-54
2022/10/25 09:08:11;;;;;;;6.32;0.80;;;;;;;;;;5013182;28;20076;-49
2022/10/25 09:10:39;;;;;;;2.92;0.80;;;;;;;;;;5013219;28;20044;-46
2022/10/25 09:13:12;;;;;;;2.53;0.80;;;;;;;;;;5011957;28;20050;-52
2022/10/25 09:16:00;;;;;;;4.47;1.10;;;;;;;;;;5012863;28;20029;-51
2022/10/25 09:18:48;;;;;;;2.40;0.75;;;;;;;;;;5009922;28;20030;-53
2022/10/25 09:21:17;;;;;;;4.07;0.77;;;;;;;;;;5007371;28;20022;-53
2022/10/25 09:23:51;;;;;;;2.40;0.82;;;;;;;;;;5003101;28;20040;-53
2022/10/25 09:26:21;;;;;;;;;;;;;;;;;;5011993;28;20029;-52
2022/10/25 09:29:01;;;;;;;4.82;0.80;;;;;;;;;;5010264;28;20381;-49
2022/10/25 09:31:29;;;;;;;5.72;1.00;;;;;;;;;;5011631;28;20030;-50
2022/10/25 09:34:00;;;;;;;2.70;0.90;;;;;;;;;;5011851;28;20049;-53
2022/10/25 09:36:29;;;;;;;3.45;0.80;;;;;;;;;;5011637;28;20026;-53
2022/10/25 09:38:59;;;;;;;3.17;0.90;;;;;;;;;;5005963;28;20053;-55
2022/10/25 09:41:31;;;;;;;3.30;1.00;;;;;;;;;;5012962;28;20393;-54
2022/10/25 09:44:09;;;;;;;3.95;0.80;;;;;;;;;;5008037;28;20042;-56
2022/10/25 09:46:54;;;;;;;4.10;0.88;;;;;;;;;;5009241;28;20061;-57
2022/10/25 09:49:30;;;;;;;3.33;0.93;;;;;;;;;;4997421;28;20045;-55
2022/10/25 09:52:01;;;;;;;2.05;0.80;;;;;;;;;;5000414;28;20034;-54
2022/10/25 09:54:37;;;;;;;3.38;0.80;;;;;;;;;;5003990;28;20042;-57
2022/10/25 09:57:03;;;;;;;1.70;0.70;;;;;;;;;;5009737;28;20030;-53
2022/10/25 09:59:28;;;;;;;2.53;0.90;;;;;;;;;;5010873;28;20401;-57
2022/10/25 10:01:54;;;;;;;2.13;0.77;;;;;;;;;;5014151;28;20389;-56
2022/10/25 10:04:34;;;;;;;2.20;0.80;;;;;;;;;;5000737;28;20496;-57
2022/10/25 10:07:13;;;;;;;5.72;1.00;;;;;;;;;;5008384;28;20054;-55
2022/10/25 10:09:39;;;;;;;2.25;1.02;;;;;;;;;;5015455;28;20022;-56
2022/10/25 10:12:06;;;;;;;3.40;0.90;;;;;;;;;;5015400;28;20053;-55
2022/10/25 10:14:43;;;;;;;3.63;0.98;;;;;;;;;;5006115;28;20105;-57
2022/10/25 10:17:13;;;;;;;7.82;1.30;;;;;;;;;;5018035;28;20042;-57
2022/10/25 10:19:39;;;;;;;3.38;0.88;;;;;;;;;;5006915;28;20433;-57
2022/10/25 10:22:12;;;;;;;2.58;0.90;;;;;;;;;;5015059;28;20033;-55
2022/10/25 10:24:42;;;;;;;3.30;0.80;;;;;;;;;;5014628;28;20040;-57
2022/10/25 10:27:09;;;;;;;2.42;0.90;;;;;;;;;;5007931;28;20049;-54
2022/10/25 10:30:05;;;;;;;2.28;1.02;;;;;;;;;;5009494;28;20091;-58
2022/10/25 10:32:35;;;;;;;2.55;0.82;;;;;;;;;;5006666;28;20111;-55
2022/10/25 10:35:03;;;;;;;4.43;0.90;;;;;;;;;;5009057;28;20026;-52
2022/10/25 10:37:30;;;;;;;1.02;0.60;;;;;;;;;;5015435;28;20065;-57
2022/10/25 10:39:58;;;;;;;4.47;0.88;;;;;;;;;;5030654;28;20049;-55
2022/10/25 10:42:35;;;;;;;2.50;0.75;;;;;;;;;;5015238;28;20037;-49
2022/10/25 10:45:07;;;;;;;3.53;0.75;;;;;;;;;;5012780;28;20041;-54
2022/10/25 10:47:43;;;;;;;2.42;0.90;;;;;;;;;;4999199;28;20452;-53
2022/10/25 10:50:25;;;;;;;3.25;0.98;;;;;;;;;;5015214;28;20046;-53
2022/10/25 10:52:59;;;;;;;3.67;0.90;;;;;;;;;;5002533;28;20041;-53
2022/10/25 10:55:30;;;;;;;2.63;0.88;;;;;;;;;;5009084;28;20125;-48
2022/10/25 10:58:01;;;;;;;1.52;0.85;;;;;;;;;;5007398;28;20034;-51
2022/10/25 11:00:28;;;;;;;2.30;0.80;;;;;;;;;;5006082;28;20041;-54
2022/10/25 11:02:53;;;;;;;2.30;0.93;;;;;;;;;;5008577;28;20030;-53
2022/10/25 11:05:24;;;;;;;2.67;1.00;;;;;;;;;;5014122;28;20053;-53
2022/10/25 11:07:58;;;;;;;4.32;1.10;;;;;;;;;;5014359;28;20057;-50
2022/10/25 11:10:26;;;;;;;2.75;1.00;;;;;;;;;;5004907;28;20060;-51
2022/10/25 11:13:18;;;;;;;5.10;1.35;;;;;;;;;;5007765;28;20133;-50
2022/10/25 11:16:07;;;;;;;3.55;1.30;;;;;;;;;;5006056;28;20073;-49
2022/10/25 11:18:49;;;;;;;2.70;1.00;;;;;;;;;;5003382;28;20482;-51
2022/10/25 11:21:26;;;;;;;3.13;1.40;;;;;;;;;;5002823;28;20125;-49
2022/10/25 11:24:09;;;;;;;3.28;1.08;;;;;;;;;;4997401;28;20050;-49
2022/10/25 11:26:53;;;;;;;2.40;1.20;;;;;;;;;;4999006;28;20364;-49
2022/10/25 11:29:43;;;;;;;2.88;1.30;;;;;;;;;;5012285;28;20478;-49
2022/10/25 11:32:36;;;;;;;2.03;1.08;;;;;;;;;;5014573;28;20065;-53
2022/10/25 11:35:01;;;;;;;1.88;1.00;;;;;;;;;;5014057;28;20176;-52
2022/10/25 11:37:32;;;;;;;1.95;0.90;;;;;;;;;;5014322;28;20453;-49
2022/10/25 11:40:14;;;;;;;2.17;1.08;;;;;;;;;;5005906;28;20485;-52
2022/10/25 11:42:47;;;;;;;2.72;1.10;;;;;;;;;;5011310;28;20038;-54
2022/10/25 11:45:19;;;;;;;;;;;;;;;;;;5011774;28;20041;-51
2022/10/25 11:48:06;;;;;;;1.58;0.70;;;;;;;;;;5014267;28;19924;-52
2022/10/25 11:50:31;;;;;;;2.05;1.00;;;;;;;;;;5009857;28;20038;-54
2022/10/25 11:53:17;;;;;;;3.33;0.90;;;;;;;;;;5011016;28;20113;-52
2022/10/25 11:55:56;;;;;;;1.80;0.90;;;;;;;;;;4999183;28;20046;-50
2022/10/25 11:58:37;;;;;;;2.17;0.90;;;;;;;;;;5007317;28;20053;-51
2022/10/25 12:01:20;;;;;;;2.50;1.00;;;;;;;;;;5013388;28;20033;-49
2022/10/25 12:04:04;;;;;;;1.73;0.90;;;;;;;;;;5007807;28;20048;-49
2022/10/25 12:06:29;;;;;;;;;;;;;;;;;;5019455;28;20414;-51
2022/10/25 12:09:08;;;;;;;3.45;0.95;;;;;;;;;;5016209;28;19983;-50
2022/10/25 12:11:42;;;;;;;4.60;0.90;;;;;;;;;;5012491;28;20037;-50
2022/10/25 12:14:14;;;;;;;2.60;0.70;;;;;;;;;;5006860;28;20038;-52
2022/10/25 12:16:40;;;;;;;5.82;1.10;;;;;;;;;;5020428;28;20045;-49
2022/10/25 12:19:11;;;;;;;2.15;0.88;;;;;;;;;;5000860;28;20430;-57
2022/10/25 12:21:48;;;;;;;2.63;0.90;;;;;;;;;;5013062;28;20482;-51
2022/10/25 12:24:27;;;;;;;1.65;0.60;;;;;;;;;;5012602;28;20037;-58
2022/10/25 12:26:53;;;;;;;3.38;0.90;;;;;;;;;;5009340;28;20117;-50
2022/10/25 12:29:37;;;;;;;2.58;0.95;;;;;;;;;;5004701;28;20062;-53
2022/10/25 12:32:10;;;;;;;5.28;1.13;;;;;;;;;;4993271;28;20046;-67
2022/10/25 12:34:44;;;;;;;2.80;0.97;;;;;;;;;;5007480;28;20030;-57
2022/10/25 12:37:40;;;;;;;5.88;1.00;;;;;;;;;;5012537;28;20048;-56
2022/10/25 12:40:16;;;;;;;8.13;1.42;;;;;;;;;;5008226;28;20037;-58
2022/10/25 12:42:48;;;;;;;6.75;1.98;;;;;;;;;;5013428;28;20129;-58
2022/10/25 12:45:22;;;;;;;4.15;0.90;;;;;;;;;;5013046;28;20496;-65
2022/10/25 12:47:58;;;;;;;2.42;0.90;;;;;;;;;;5011308;28;20500;-55
2022/10/25 12:50:58;;;;;;;2.53;1.10;;;;;;;;;;5012093;28;20026;-57
2022/10/25 12:53:51;;;;;;;2.15;1.02;;;;;;;;;;5012953;28;20046;-64
2022/10/25 12:56:44;;;;;;;5.22;0.90;;;;;;;;;;4999446;28;20034;-57
2022/10/25 12:59:28;;;;;;;1.60;0.70;;;;;;;;;;5006139;28;20038;-69
2022/10/25 13:02:20;;;;;;;9.32;1.30;;;;;;;;;;5007714;28;20045;-54
2022/10/25 13:04:51;;;;;;;2.30;0.98;;;;;;;;;;4995363;28;20044;-57
2022/10/25 13:07:18;;;;;;;8.82;1.10;;;;;;;;;;5004585;28;20056;-68
2022/10/25 13:09:44;;;;;;;3.65;1.23;;;;;;;;;;5011263;28;20065;-60
2022/10/25 13:12:20;;;;;;;3.00;1.02;;;;;;;;;;4996226;28;20486;-57
2022/10/25 13:14:52;;;;;;;17.35;1.10;;;;;;;;;;5008869;28;20033;-57
2022/10/25 13:17:17;;;;;;;9.18;1.10;;;;;;;;;;5012935;28;20100;-54
2022/10/25 13:19:47;;;;;;;5.15;1.27;;;;;;;;;;5013059;28;20034;-56
2022/10/25 13:22:31;;;;;;;4.97;1.23;;;;;;;;;;5012150;28;20046;-56
2022/10/25 13:24:57;;;;;;;4.67;1.00;;;;;;;;;;5012783;28;20052;-49
2022/10/25 13:27:25;;;;;;;9.70;1.10;;;;;;;;;;5019978;28;20034;-55
2022/10/25 13:29:59;;;;;;;6.90;1.30;;;;;;;;;;5016372;28;20033;-54
2022/10/25 13:32:25;;;;;;;5.10;1.10;;;;;;;;;;5016629;28;20051;-50
2022/10/25 13:34:51;;;;;;;4.68;1.58;;;;;;;;;;5016852;28;20034;-49
2022/10/25 13:37:32;;;;;;;6.70;1.23;;;;;;;;;;5021336;28;20037;-53
2022/10/25 13:39:59;;;;;;;4.95;1.00;;;;;;;;;;5016232;28;20133;-54
2022/10/25 13:42:32;;;;;;;19.67;1.88;;;;;;;;;;5016633;28;20441;-51
2022/10/25 13:45:03;;;;;;;7.85;1.00;;;;;;;;;;5014943;28;20049;-55
2022/10/25 13:47:35;;;;;;;6.32;2.35;;;;;;;;;;5017190;28;20040;-54
2022/10/25 13:50:29;;;;;;;5.53;1.20;;;;;;;;;;5005586;28;20038;-59
2022/10/25 13:53:11;;;;;;;;;;;;;;;;;;5005118;28;20060;-63
2022/10/25 13:55:38;;;;;;;9.07;1.17;;;;;;;;;;5008348;28;19940;-56
2022/10/25 13:58:28;;;;;;;6.70;1.48;;;;;;;;;;5010778;28;20076;-60
2022/10/25 14:00:55;;;;;;;8.85;1.30;;;;;;;;;;5012442;28;20168;-61
2022/10/25 14:03:33;;;;;;;7.72;1.73;;;;;;;;;;5011415;28;20049;-59
2022/10/25 14:05:58;;;;;;;7.03;1.52;;;;;;;;;;5013231;28;20132;-59
2022/10/25 14:08:27;;;;;;;10.90;1.50;;;;;;;;;;5005520;28;20621;-62
2022/10/25 14:10:53;;;;;;;6.40;1.20;;;;;;;;;;5007065;28;20046;-61
2022/10/25 14:13:25;;;;;;;9.93;1.48;;;;;;;;;;5008375;28;20531;-61
2022/10/25 14:16:02;;;;;;;13.90;1.85;;;;;;;;;;5029359;28;20036;-58
2022/10/25 14:18:29;;;;;;;10.75;1.35;;;;;;;;;;5014651;28;20060;-55
2022/10/25 14:20:58;;;;;;;6.97;1.50;;;;;;;;;;5030449;28;20100;-58
2022/10/25 14:23:28;;;;;;;10.40;1.65;;;;;;;;;;5014731;28;20492;-58
2022/10/25 14:25:56;;;;;;;8.77;1.30;;;;;;;;;;5014625;28;20044;-58
2022/10/25 14:28:27;;;;;;;3.25;1.00;;;;;;;;;;5016132;28;20121;-58
2022/10/25 14:30:53;;;;;;;7.05;1.30;;;;;;;;;;5015651;28;20042;-57
2022/10/25 14:33:19;;;;;;;9.63;1.30;;;;;;;;;;5012270;28;20386;-58
2022/10/25 14:35:47;;;;;;;7.65;1.30;;;;;;;;;;4995280;28;20042;-58
2022/10/25 14:38:15;;;;;;;6.38;1.35;;;;;;;;;;5008378;28;20041;-58
2022/10/25 14:40:40;;;;;;;4.53;1.27;;;;;;;;;;4998014;28;20030;-59
2022/10/25 14:43:33;;;;;;;3.20;1.10;;;;;;;;;;5001280;28;20450;-59
2022/10/25 14:46:00;;;;;;;4.13;1.48;;;;;;;;;;5000892;28;20065;-59
2022/10/25 14:48:26;;;;;;;10.50;1.25;;;;;;;;;;5003260;28;20041;-58
2022/10/25 14:50:53;;;;;;;6.38;1.35;;;;;;;;;;5020473;28;20362;-58
2022/10/25 14:53:19;;;;;;;7.63;1.50;;;;;;;;;;5002397;28;20050;-58
2022/10/25 14:56:11;;;;;;;5.72;1.10;;;;;;;;;;5004515;28;20042;-58
2022/10/25 14:58:41;;;;;;;3.72;1.20;;;;;;;;;;5036156;28;20050;-61
2022/10/25 15:01:09;;;;;;;5.00;1.33;;;;;;;;;;5009886;28;20366;-58
2022/10/25 15:03:40;;;;;;;5.70;1.25;;;;;;;;;;5012605;28;20041;-59
2022/10/25 15:06:05;;;;;;;7.63;0.90;;;;;;;;;;4999525;28;20076;-58